SANE/SDE METAR and TAF weather

Enter ICAO airport designator
Station Type Date Time Source
SANE METAR 2019/06/24 23:15 UTC NOAA

SANE 242315Z 32004KT 5000 BR SCT005 BKN010 16/15 Q0998


Station Type Date Time Source
SANE Decoded METAR 2019/06/24 23:15 UTC NOAA

Santiago Del Estero Aero., Argentina (SANE) 27-46S 064-18W 199M
Jun 24, 2019 - 07:15 PM EDT / 2019.06.24 2315 UTC
Wind: from the NW (320 degrees) at 5 MPH (4 KT):0
Visibility: 3 mile(s):0
Sky conditions: mostly cloudy
Weather: mist
Temperature: 60 F (16 C)
Dew Point: 59 F (15 C)
Relative Humidity: 93%
Pressure (altimeter): 29.47 in. Hg (0998 hPa)
ob: SANE 242315Z 32004KT 5000 BR SCT005 BKN010 16/15 Q0998
cycle: 23

Station Type Date Time Source
SANE TAF 2019/06/14 06:12 UTC NOAA

TAF TAF SANE 140500Z 1406/1506 18005KT 5000 BR OVC015 TX15/1418Z TN13/1410Z
TEMPO 1408/1411 14003KT 0400 BCFG/DZ BKN006 BKN010
BECMG 1413/1415 18010KT 2000 DZ OVC007

Example: see airport list